sensor_id;sensor_type;location;lat;lon;timestamp;pressure;altitude;pressure_sealevel;temperature;humidity
9439;BME280;5176;42.622;25.386;2023-11-18T00:00:47;96165.09;;;10.04;100.00
9439;BME280;5176;42.622;25.386;2023-11-18T00:03:16;96167.34;;;9.97;100.00
9439;BME280;5176;42.622;25.386;2023-11-18T00:05:44;96199.13;;;9.93;100.00
9439;BME280;5176;42.622;25.386;2023-11-18T00:08:11;96199.47;;;9.88;100.00
9439;BME280;5176;42.622;25.386;2023-11-18T00:10:39;96199.84;;;9.83;100.00
9439;BME280;5176;42.622;25.386;2023-11-18T00:13:08;96195.06;;;9.77;100.00
9439;BME280;5176;42.622;25.386;2023-11-18T00:15:35;96208.16;;;9.77;100.00
9439;BME280;5176;42.622;25.386;2023-11-18T00:18:03;96209.47;;;9.83;100.00
9439;BME280;5176;42.622;25.386;2023-11-18T00:20:30;96205.78;;;9.86;100.00
9439;BME280;5176;42.622;25.386;2023-11-18T00:22:57;96196.25;;;9.73;98.43
9439;BME280;5176;42.622;25.386;2023-11-18T00:25:25;96199.47;;;9.77;98.22
9439;BME280;5176;42.622;25.386;2023-11-18T00:27:53;96205.75;;;9.74;98.16
9439;BME280;5176;42.622;25.386;2023-11-18T00:30:23;96217.44;;;9.70;99.24
9439;BME280;5176;42.622;25.386;2023-11-18T00:32:51;96217.06;;;9.75;99.42
9439;BME280;5176;42.622;25.386;2023-11-18T00:35:19;96215.19;;;9.77;99.68
9439;BME280;5176;42.622;25.386;2023-11-18T00:37:47;96218.34;;;9.69;97.03
9439;BME280;5176;42.622;25.386;2023-11-18T00:40:14;96230.28;;;9.73;97.52
9439;BME280;5176;42.622;25.386;2023-11-18T00:42:43;96244.06;;;9.75;96.76
9439;BME280;5176;42.622;25.386;2023-11-18T00:45:11;96240.75;;;9.73;95.37
9439;BME280;5176;42.622;25.386;2023-11-18T00:47:40;96250.38;;;9.73;94.91
9439;BME280;5176;42.622;25.386;2023-11-18T00:50:08;96254.41;;;9.66;94.51
9439;BME280;5176;42.622;25.386;2023-11-18T00:52:36;96236.22;;;9.64;95.08
9439;BME280;5176;42.622;25.386;2023-11-18T00:55:07;96219.19;;;9.59;93.22
9439;BME280;5176;42.622;25.386;2023-11-18T00:57:36;96212.19;;;9.59;93.38
9439;BME280;5176;42.622;25.386;2023-11-18T01:00:06;96213.00;;;9.60;94.16
9439;BME280;5176;42.622;25.386;2023-11-18T01:02:35;96185.91;;;9.61;93.30
9439;BME280;5176;42.622;25.386;2023-11-18T01:05:06;96171.63;;;9.53;91.62
9439;BME280;5176;42.622;25.386;2023-11-18T01:07:37;96176.84;;;9.53;91.12
9439;BME280;5176;42.622;25.386;2023-11-18T01:10:05;96182.53;;;9.47;90.54
9439;BME280;5176;42.622;25.386;2023-11-18T01:12:33;96181.84;;;9.45;91.21
9439;BME280;5176;42.622;25.386;2023-11-18T01:15:01;96183.84;;;9.42;91.78
9439;BME280;5176;42.622;25.386;2023-11-18T01:17:28;96165.91;;;9.37;91.68
9439;BME280;5176;42.622;25.386;2023-11-18T01:19:57;96160.66;;;9.37;92.59
9439;BME280;5176;42.622;25.386;2023-11-18T01:22:26;96156.94;;;9.28;92.50
9439;BME280;5176;42.622;25.386;2023-11-18T01:24:53;96158.41;;;9.33;92.14
9439;BME280;5176;42.622;25.386;2023-11-18T01:27:21;96175.63;;;9.35;92.68
9439;BME280;5176;42.622;25.386;2023-11-18T01:29:49;96183.38;;;9.37;92.89
9439;BME280;5176;42.622;25.386;2023-11-18T01:32:16;96180.50;;;9.40;93.01
9439;BME280;5176;42.622;25.386;2023-11-18T01:34:44;96172.53;;;9.41;91.84
9439;BME280;5176;42.622;25.386;2023-11-18T01:37:16;96177.78;;;9.41;92.23
9439;BME280;5176;42.622;25.386;2023-11-18T01:39:45;96171.59;;;9.42;91.22
9439;BME280;5176;42.622;25.386;2023-11-18T01:42:12;96168.16;;;9.42;90.79
9439;BME280;5176;42.622;25.386;2023-11-18T01:44:40;96164.69;;;9.41;90.59
9439;BME280;5176;42.622;25.386;2023-11-18T01:47:08;96162.22;;;9.40;89.77
9439;BME280;5176;42.622;25.386;2023-11-18T01:49:38;96171.22;;;9.36;90.67
9439;BME280;5176;42.622;25.386;2023-11-18T01:52:07;96149.94;;;9.29;88.66
9439;BME280;5176;42.622;25.386;2023-11-18T01:54:36;96177.66;;;9.32;88.41
9439;BME280;5176;42.622;25.386;2023-11-18T01:57:06;96190.28;;;9.38;89.89
9439;BME280;5176;42.622;25.386;2023-11-18T01:59:35;96201.91;;;9.34;88.08
9439;BME280;5176;42.622;25.386;2023-11-18T02:02:04;96218.31;;;9.36;88.80
9439;BME280;5176;42.622;25.386;2023-11-18T02:04:31;96216.75;;;9.33;89.07
9439;BME280;5176;42.622;25.386;2023-11-18T02:06:59;96215.81;;;9.34;89.01
9439;BME280;5176;42.622;25.386;2023-11-18T02:09:30;96217.84;;;9.31;88.99
9439;BME280;5176;42.622;25.386;2023-11-18T02:12:11;96206.88;;;9.25;89.65
9439;BME280;5176;42.622;25.386;2023-11-18T02:14:43;96188.19;;;9.19;90.03
9439;BME280;5176;42.622;25.386;2023-11-18T02:17:14;96182.13;;;9.18;91.19
9439;BME280;5176;42.622;25.386;2023-11-18T02:19:42;96170.84;;;9.18;90.38
9439;BME280;5176;42.622;25.386;2023-11-18T02:22:11;96186.41;;;9.19;90.76
9439;BME280;5176;42.622;25.386;2023-11-18T02:24:40;96174.50;;;9.15;91.40
9439;BME280;5176;42.622;25.386;2023-11-18T02:27:09;96158.13;;;9.13;90.52
9439;BME280;5176;42.622;25.386;2023-11-18T02:29:39;96169.03;;;9.07;90.61
9439;BME280;5176;42.622;25.386;2023-11-18T02:32:13;96172.84;;;9.14;90.15
9439;BME280;5176;42.622;25.386;2023-11-18T02:34:51;96177.38;;;9.12;89.41
9439;BME280;5176;42.622;25.386;2023-11-18T02:37:20;96181.75;;;9.12;89.06
9439;BME280;5176;42.622;25.386;2023-11-18T02:39:53;96174.13;;;9.09;88.49
9439;BME280;5176;42.622;25.386;2023-11-18T02:42:26;96179.38;;;9.09;87.11
9439;BME280;5176;42.622;25.386;2023-11-18T02:44:54;96174.25;;;9.07;85.74
9439;BME280;5176;42.622;25.386;2023-11-18T02:47:25;96164.50;;;9.09;85.33
9439;BME280;5176;42.622;25.386;2023-11-18T02:49:56;96156.44;;;9.12;86.63
9439;BME280;5176;42.622;25.386;2023-11-18T02:52:31;96118.28;;;8.98;85.55
9439;BME280;5176;42.622;25.386;2023-11-18T02:54:59;96144.47;;;9.10;83.89
9439;BME280;5176;42.622;25.386;2023-11-18T02:57:28;96148.00;;;9.09;82.87
9439;BME280;5176;42.622;25.386;2023-11-18T02:59:55;96161.91;;;9.09;83.94
9439;BME280;5176;42.622;25.386;2023-11-18T03:02:23;96178.53;;;9.08;82.62
9439;BME280;5176;42.622;25.386;2023-11-18T03:04:53;96181.38;;;9.05;81.72
9439;BME280;5176;42.622;25.386;2023-11-18T03:07:20;96189.81;;;9.09;80.74
9439;BME280;5176;42.622;25.386;2023-11-18T03:09:48;96186.13;;;9.00;80.24
9439;BME280;5176;42.622;25.386;2023-11-18T03:12:15;96174.94;;;8.98;80.55
9439;BME280;5176;42.622;25.386;2023-11-18T03:14:44;96178.41;;;8.98;81.33
9439;BME280;5176;42.622;25.386;2023-11-18T03:17:12;96179.78;;;8.91;81.18
9439;BME280;5176;42.622;25.386;2023-11-18T03:19:39;96174.78;;;8.88;81.77
9439;BME280;5176;42.622;25.386;2023-11-18T03:22:10;96177.63;;;8.85;81.34
9439;BME280;5176;42.622;25.386;2023-11-18T03:24:38;96156.09;;;8.82;80.23
9439;BME280;5176;42.622;25.386;2023-11-18T03:27:06;96154.91;;;8.74;80.46
9439;BME280;5176;42.622;25.386;2023-11-18T03:29:34;96148.63;;;8.77;81.13
9439;BME280;5176;42.622;25.386;2023-11-18T03:32:04;96160.38;;;8.71;81.25
9439;BME280;5176;42.622;25.386;2023-11-18T03:34:32;96161.63;;;8.66;80.69
9439;BME280;5176;42.622;25.386;2023-11-18T03:36:59;96152.25;;;8.63;81.25
9439;BME280;5176;42.622;25.386;2023-11-18T03:39:27;96151.19;;;8.66;80.93
9439;BME280;5176;42.622;25.386;2023-11-18T03:41:54;96154.88;;;8.63;80.82
9439;BME280;5176;42.622;25.386;2023-11-18T03:44:22;96153.31;;;8.61;81.47
9439;BME280;5176;42.622;25.386;2023-11-18T03:46:50;96159.84;;;8.66;80.31
9439;BME280;5176;42.622;25.386;2023-11-18T03:49:19;96149.84;;;8.60;80.36
9439;BME280;5176;42.622;25.386;2023-11-18T03:51:47;96153.19;;;8.62;80.41
9439;BME280;5176;42.622;25.386;2023-11-18T03:54:14;96164.00;;;8.69;80.69
9439;BME280;5176;42.622;25.386;2023-11-18T03:56:41;96156.09;;;8.70;80.43
9439;BME280;5176;42.622;25.386;2023-11-18T03:59:08;96155.34;;;8.68;79.98
9439;BME280;5176;42.622;25.386;2023-11-18T04:01:36;96138.25;;;8.64;78.31
9439;BME280;5176;42.622;25.386;2023-11-18T04:04:04;96131.25;;;8.65;78.46
9439;BME280;5176;42.622;25.386;2023-11-18T04:06:33;96134.25;;;8.71;79.33
9439;BME280;5176;42.622;25.386;2023-11-18T04:09:00;96130.91;;;8.69;79.55
9439;BME280;5176;42.622;25.386;2023-11-18T04:11:28;96143.81;;;8.60;77.67
9439;BME280;5176;42.622;25.386;2023-11-18T04:13:56;96142.84;;;8.61;78.49
9439;BME280;5176;42.622;25.386;2023-11-18T04:16:23;96141.31;;;8.58;79.23
9439;BME280;5176;42.622;25.386;2023-11-18T04:18:50;96146.41;;;8.60;78.86
9439;BME280;5176;42.622;25.386;2023-11-18T04:21:18;96150.81;;;8.59;80.05
9439;BME280;5176;42.622;25.386;2023-11-18T04:23:47;96144.03;;;8.57;79.60
9439;BME280;5176;42.622;25.386;2023-11-18T04:26:14;96151.13;;;8.55;80.34
9439;BME280;5176;42.622;25.386;2023-11-18T04:28:41;96115.69;;;8.39;79.81
9439;BME280;5176;42.622;25.386;2023-11-18T04:31:09;96135.19;;;8.46;79.55
9439;BME280;5176;42.622;25.386;2023-11-18T04:33:37;96139.69;;;8.44;79.69
9439;BME280;5176;42.622;25.386;2023-11-18T04:36:06;96145.38;;;8.38;79.25
9439;BME280;5176;42.622;25.386;2023-11-18T04:38:36;96173.16;;;8.39;78.62
9439;BME280;5176;42.622;25.386;2023-11-18T04:41:05;96186.09;;;8.41;78.21
9439;BME280;5176;42.622;25.386;2023-11-18T04:43:33;96176.91;;;8.35;78.05
9439;BME280;5176;42.622;25.386;2023-11-18T04:46:00;96189.34;;;8.32;77.58
9439;BME280;5176;42.622;25.386;2023-11-18T04:48:28;96175.16;;;8.23;76.43
9439;BME280;5176;42.622;25.386;2023-11-18T04:50:55;96162.19;;;8.22;77.22
9439;BME280;5176;42.622;25.386;2023-11-18T04:53:22;96179.31;;;8.26;76.31
9439;BME280;5176;42.622;25.386;2023-11-18T04:55:51;96147.84;;;8.16;75.87
9439;BME280;5176;42.622;25.386;2023-11-18T04:58:20;96170.66;;;8.25;75.76
9439;BME280;5176;42.622;25.386;2023-11-18T05:00:48;96167.41;;;8.22;75.90
9439;BME280;5176;42.622;25.386;2023-11-18T05:03:15;96177.03;;;8.21;75.10
9439;BME280;5176;42.622;25.386;2023-11-18T05:05:43;96181.66;;;8.17;74.58
9439;BME280;5176;42.622;25.386;2023-11-18T05:08:18;96172.25;;;8.15;73.97
9439;BME280;5176;42.622;25.386;2023-11-18T05:10:47;96151.75;;;7.98;74.25
9439;BME280;5176;42.622;25.386;2023-11-18T05:13:14;96175.41;;;8.07;74.70
9439;BME280;5176;42.622;25.386;2023-11-18T05:15:44;96172.91;;;8.06;74.74
9439;BME280;5176;42.622;25.386;2023-11-18T05:18:12;96182.63;;;8.04;75.63
9439;BME280;5176;42.622;25.386;2023-11-18T05:20:40;96180.66;;;7.95;74.85
9439;BME280;5176;42.622;25.386;2023-11-18T05:23:08;96199.97;;;7.92;75.72
9439;BME280;5176;42.622;25.386;2023-11-18T05:25:38;96216.47;;;7.92;76.79
9439;BME280;5176;42.622;25.386;2023-11-18T05:28:06;96215.31;;;7.84;75.61
9439;BME280;5176;42.622;25.386;2023-11-18T05:30:34;96205.44;;;7.76;75.69
9439;BME280;5176;42.622;25.386;2023-11-18T05:33:04;96224.59;;;7.75;76.63
9439;BME280;5176;42.622;25.386;2023-11-18T05:35:32;96221.16;;;7.75;76.91
9439;BME280;5176;42.622;25.386;2023-11-18T05:38:01;96228.97;;;7.75;76.93
9439;BME280;5176;42.622;25.386;2023-11-18T05:40:30;96228.56;;;7.68;76.78
9439;BME280;5176;42.622;25.386;2023-11-18T05:42:57;96235.25;;;7.72;76.21
9439;BME280;5176;42.622;25.386;2023-11-18T05:45:28;96230.75;;;7.74;75.51
9439;BME280;5176;42.622;25.386;2023-11-18T05:47:58;96236.63;;;7.78;73.71
9439;BME280;5176;42.622;25.386;2023-11-18T05:50:27;96235.91;;;7.76;73.61
9439;BME280;5176;42.622;25.386;2023-11-18T05:52:54;96230.56;;;7.77;74.49
9439;BME280;5176;42.622;25.386;2023-11-18T05:55:22;96195.59;;;7.67;74.21
9439;BME280;5176;42.622;25.386;2023-11-18T05:57:49;96174.03;;;7.65;75.54
9439;BME280;5176;42.622;25.386;2023-11-18T06:00:17;96174.97;;;7.64;75.60
9439;BME280;5176;42.622;25.386;2023-11-18T06:02:47;96177.56;;;7.64;74.71
9439;BME280;5176;42.622;25.386;2023-11-18T06:05:14;96172.47;;;7.62;75.84
9439;BME280;5176;42.622;25.386;2023-11-18T06:07:44;96187.47;;;7.59;74.69
9439;BME280;5176;42.622;25.386;2023-11-18T06:10:13;96188.13;;;7.62;75.24
9439;BME280;5176;42.622;25.386;2023-11-18T06:12:40;96202.50;;;7.68;75.08
9439;BME280;5176;42.622;25.386;2023-11-18T06:15:08;96205.84;;;7.70;74.18
9439;BME280;5176;42.622;25.386;2023-11-18T06:17:40;96191.97;;;7.70;74.62
9439;BME280;5176;42.622;25.386;2023-11-18T06:20:09;96170.34;;;7.68;74.87
9439;BME280;5176;42.622;25.386;2023-11-18T06:22:37;96180.19;;;7.64;73.23
9439;BME280;5176;42.622;25.386;2023-11-18T06:25:07;96187.06;;;7.65;75.52
9439;BME280;5176;42.622;25.386;2023-11-18T06:27:34;96189.66;;;7.65;74.42
9439;BME280;5176;42.622;25.386;2023-11-18T06:30:02;96189.78;;;7.63;74.69
9439;BME280;5176;42.622;25.386;2023-11-18T06:32:32;96190.28;;;7.69;75.09
9439;BME280;5176;42.622;25.386;2023-11-18T06:35:00;96205.94;;;7.69;74.39
9439;BME280;5176;42.622;25.386;2023-11-18T06:37:32;96211.47;;;7.64;73.59
9439;BME280;5176;42.622;25.386;2023-11-18T06:39:59;96227.75;;;7.68;73.97
9439;BME280;5176;42.622;25.386;2023-11-18T06:42:28;96222.31;;;7.71;74.37
9439;BME280;5176;42.622;25.386;2023-11-18T06:44:56;96221.06;;;7.76;74.01
9439;BME280;5176;42.622;25.386;2023-11-18T06:47:24;96221.81;;;7.78;73.91
9439;BME280;5176;42.622;25.386;2023-11-18T06:49:52;96226.28;;;7.76;73.18
9439;BME280;5176;42.622;25.386;2023-11-18T06:52:19;96213.75;;;7.69;72.40
9439;BME280;5176;42.622;25.386;2023-11-18T06:54:47;96212.50;;;7.61;74.02
9439;BME280;5176;42.622;25.386;2023-11-18T06:57:17;96206.69;;;7.58;72.87
9439;BME280;5176;42.622;25.386;2023-11-18T06:59:46;96198.75;;;7.59;73.93
9439;BME280;5176;42.622;25.386;2023-11-18T07:02:14;96196.03;;;7.61;74.09
9439;BME280;5176;42.622;25.386;2023-11-18T07:04:42;96180.72;;;7.56;72.75
9439;BME280;5176;42.622;25.386;2023-11-18T07:07:09;96178.72;;;7.60;73.52
9439;BME280;5176;42.622;25.386;2023-11-18T07:09:38;96162.88;;;7.63;73.43
9439;BME280;5176;42.622;25.386;2023-11-18T07:12:06;96158.25;;;7.67;72.94
9439;BME280;5176;42.622;25.386;2023-11-18T07:14:33;96157.63;;;7.76;72.09
9439;BME280;5176;42.622;25.386;2023-11-18T07:17:03;96168.56;;;7.81;72.58
9439;BME280;5176;42.622;25.386;2023-11-18T07:19:31;96157.63;;;7.76;71.86
9439;BME280;5176;42.622;25.386;2023-11-18T07:21:59;96161.69;;;7.80;71.96
9439;BME280;5176;42.622;25.386;2023-11-18T07:24:26;96172.13;;;7.80;72.12
9439;BME280;5176;42.622;25.386;2023-11-18T07:26:53;96182.13;;;7.86;69.23
9439;BME280;5176;42.622;25.386;2023-11-18T07:29:20;96175.78;;;7.90;69.28
9439;BME280;5176;42.622;25.386;2023-11-18T07:31:49;96177.94;;;7.96;69.33
9439;BME280;5176;42.622;25.386;2023-11-18T07:34:18;96156.97;;;7.98;68.43
9439;BME280;5176;42.622;25.386;2023-11-18T07:36:45;96161.53;;;7.94;68.32
9439;BME280;5176;42.622;25.386;2023-11-18T07:39:14;96152.38;;;7.88;69.01
9439;BME280;5176;42.622;25.386;2023-11-18T07:41:50;96160.25;;;7.76;69.94
9439;BME280;5176;42.622;25.386;2023-11-18T07:44:17;96165.66;;;7.73;69.83
9439;BME280;5176;42.622;25.386;2023-11-18T07:46:46;96155.13;;;7.74;70.30
9439;BME280;5176;42.622;25.386;2023-11-18T07:49:17;96163.78;;;7.75;70.16
9439;BME280;5176;42.622;25.386;2023-11-18T07:51:44;96175.56;;;7.80;69.75
9439;BME280;5176;42.622;25.386;2023-11-18T07:54:11;96175.56;;;7.80;70.12
9439;BME280;5176;42.622;25.386;2023-11-18T07:56:40;96172.84;;;7.82;69.24
9439;BME280;5176;42.622;25.386;2023-11-18T07:59:09;96174.53;;;7.83;69.65
9439;BME280;5176;42.622;25.386;2023-11-18T08:01:41;96197.56;;;7.89;69.47
9439;BME280;5176;42.622;25.386;2023-11-18T08:04:11;96181.84;;;7.78;67.49
9439;BME280;5176;42.622;25.386;2023-11-18T08:06:41;96159.72;;;7.83;69.37
9439;BME280;5176;42.622;25.386;2023-11-18T08:09:09;96171.47;;;7.89;68.75
9439;BME280;5176;42.622;25.386;2023-11-18T08:11:39;96174.59;;;7.94;68.81
9439;BME280;5176;42.622;25.386;2023-11-18T08:14:07;96172.94;;;7.93;67.97
9439;BME280;5176;42.622;25.386;2023-11-18T08:16:35;96161.78;;;7.91;67.15
9439;BME280;5176;42.622;25.386;2023-11-18T08:19:03;96152.28;;;7.90;67.68
9439;BME280;5176;42.622;25.386;2023-11-18T08:21:33;96126.91;;;7.92;67.63
9439;BME280;5176;42.622;25.386;2023-11-18T08:24:03;96161.03;;;7.89;67.01
9439;BME280;5176;42.622;25.386;2023-11-18T08:26:30;96163.63;;;7.89;66.38
9439;BME280;5176;42.622;25.386;2023-11-18T08:28:58;96154.06;;;7.89;66.68
9439;BME280;5176;42.622;25.386;2023-11-18T08:31:26;96139.25;;;7.90;66.57
9439;BME280;5176;42.622;25.386;2023-11-18T08:33:54;96151.75;;;7.85;66.00
9439;BME280;5176;42.622;25.386;2023-11-18T08:36:21;96137.78;;;7.86;66.29
9439;BME280;5176;42.622;25.386;2023-11-18T08:38:53;96155.22;;;7.85;67.27
9439;BME280;5176;42.622;25.386;2023-11-18T08:41:23;96167.41;;;7.85;67.56
9439;BME280;5176;42.622;25.386;2023-11-18T08:43:51;96143.66;;;7.77;66.80
9439;BME280;5176;42.622;25.386;2023-11-18T08:46:19;96164.13;;;7.70;67.92
9439;BME280;5176;42.622;25.386;2023-11-18T08:48:46;96185.69;;;7.72;66.68
9439;BME280;5176;42.622;25.386;2023-11-18T08:51:14;96168.06;;;7.76;67.35
9439;BME280;5176;42.622;25.386;2023-11-18T08:53:42;96172.47;;;7.62;66.94
9439;BME280;5176;42.622;25.386;2023-11-18T08:56:11;96164.25;;;7.56;66.94
9439;BME280;5176;42.622;25.386;2023-11-18T08:58:45;96133.88;;;7.42;68.51
9439;BME280;5176;42.622;25.386;2023-11-18T09:01:15;96107.72;;;7.18;67.64
9439;BME280;5176;42.622;25.386;2023-11-18T09:03:42;96160.75;;;7.68;68.13
9439;BME280;5176;42.622;25.386;2023-11-18T09:06:17;96165.91;;;7.57;65.97
9439;BME280;5176;42.622;25.386;2023-11-18T09:08:51;96164.53;;;7.51;66.69
9439;BME280;5176;42.622;25.386;2023-11-18T09:11:20;96181.44;;;7.46;65.42
9439;BME280;5176;42.622;25.386;2023-11-18T09:13:53;96166.44;;;7.49;67.29
9439;BME280;5176;42.622;25.386;2023-11-18T09:16:23;96150.25;;;7.44;66.81
9439;BME280;5176;42.622;25.386;2023-11-18T09:18:51;96163.19;;;7.46;67.13
9439;BME280;5176;42.622;25.386;2023-11-18T09:21:19;96147.53;;;7.46;66.47
9439;BME280;5176;42.622;25.386;2023-11-18T09:23:51;96139.41;;;7.50;65.64
9439;BME280;5176;42.622;25.386;2023-11-18T09:26:18;96125.63;;;7.48;64.93
9439;BME280;5176;42.622;25.386;2023-11-18T09:28:47;96108.97;;;7.38;63.67
9439;BME280;5176;42.622;25.386;2023-11-18T09:31:17;96142.63;;;7.28;62.79
9439;BME280;5176;42.622;25.386;2023-11-18T09:33:44;96147.66;;;7.31;62.95
9439;BME280;5176;42.622;25.386;2023-11-18T09:36:18;96156.72;;;7.38;63.07
9439;BME280;5176;42.622;25.386;2023-11-18T09:38:46;96133.56;;;7.34;61.46
9439;BME280;5176;42.622;25.386;2023-11-18T09:41:14;96124.25;;;7.55;62.55
9439;BME280;5176;42.622;25.386;2023-11-18T09:43:42;96140.44;;;7.35;62.49
9439;BME280;5176;42.622;25.386;2023-11-18T09:46:12;96144.72;;;7.49;63.29
9439;BME280;5176;42.622;25.386;2023-11-18T09:48:45;96156.09;;;7.48;62.53
9439;BME280;5176;42.622;25.386;2023-11-18T09:51:20;96183.94;;;7.47;63.37
9439;BME280;5176;42.622;25.386;2023-11-18T09:53:50;96147.66;;;7.44;62.65
9439;BME280;5176;42.622;25.386;2023-11-18T09:56:23;96153.50;;;7.22;62.43
9439;BME280;5176;42.622;25.386;2023-11-18T09:59:10;96141.19;;;7.24;63.64
9439;BME280;5176;42.622;25.386;2023-11-18T10:01:42;96154.00;;;7.27;62.79
9439;BME280;5176;42.622;25.386;2023-11-18T10:04:12;96149.44;;;7.31;62.88
9439;BME280;5176;42.622;25.386;2023-11-18T10:06:44;96131.78;;;7.34;62.42
9439;BME280;5176;42.622;25.386;2023-11-18T10:09:13;96133.16;;;7.40;61.16
9439;BME280;5176;42.622;25.386;2023-11-18T10:11:44;96121.28;;;7.36;59.87
9439;BME280;5176;42.622;25.386;2023-11-18T10:14:13;96132.97;;;7.30;60.21
9439;BME280;5176;42.622;25.386;2023-11-18T10:16:43;96129.94;;;7.36;60.86
9439;BME280;5176;42.622;25.386;2023-11-18T10:19:14;96112.94;;;7.31;59.52
9439;BME280;5176;42.622;25.386;2023-11-18T10:21:43;96122.53;;;7.43;60.51
9439;BME280;5176;42.622;25.386;2023-11-18T10:24:14;96130.13;;;7.46;61.17
9439;BME280;5176;42.622;25.386;2023-11-18T10:26:45;96098.72;;;7.35;58.86
9439;BME280;5176;42.622;25.386;2023-11-18T10:29:14;96102.91;;;7.37;60.17
9439;BME280;5176;42.622;25.386;2023-11-18T10:31:44;96077.16;;;7.33;60.41
9439;BME280;5176;42.622;25.386;2023-11-18T10:34:14;96075.19;;;7.36;59.14
9439;BME280;5176;42.622;25.386;2023-11-18T10:36:58;96058.72;;;7.36;59.50
9439;BME280;5176;42.622;25.386;2023-11-18T10:39:29;96048.06;;;7.39;60.73
9439;BME280;5176;42.622;25.386;2023-11-18T10:42:01;96036.78;;;7.38;62.54
9439;BME280;5176;42.622;25.386;2023-11-18T10:44:29;96007.41;;;7.36;63.01
9439;BME280;5176;42.622;25.386;2023-11-18T10:46:58;96012.50;;;7.38;62.25
9439;BME280;5176;42.622;25.386;2023-11-18T10:49:29;95970.81;;;7.25;61.00
9439;BME280;5176;42.622;25.386;2023-11-18T10:52:02;96011.78;;;7.36;61.97
9439;BME280;5176;42.622;25.386;2023-11-18T10:54:34;95991.38;;;7.30;62.55
9439;BME280;5176;42.622;25.386;2023-11-18T10:57:03;96006.78;;;7.33;62.32
9439;BME280;5176;42.622;25.386;2023-11-18T10:59:33;96015.22;;;7.36;61.92
9439;BME280;5176;42.622;25.386;2023-11-18T11:02:18;96021.59;;;7.20;61.80
9439;BME280;5176;42.622;25.386;2023-11-18T11:04:51;96036.00;;;7.25;59.74
9439;BME280;5176;42.622;25.386;2023-11-18T11:07:19;96050.38;;;7.18;60.75
9439;BME280;5176;42.622;25.386;2023-11-18T11:09:49;96049.31;;;7.21;62.48
9439;BME280;5176;42.622;25.386;2023-11-18T11:12:23;96056.66;;;7.16;61.68
9439;BME280;5176;42.622;25.386;2023-11-18T11:14:59;96071.88;;;7.09;62.14
9439;BME280;5176;42.622;25.386;2023-11-18T11:17:30;96077.50;;;7.03;62.58
9439;BME280;5176;42.622;25.386;2023-11-18T11:20:06;96084.91;;;6.96;63.50
9439;BME280;5176;42.622;25.386;2023-11-18T11:22:49;96081.66;;;6.93;63.46
9439;BME280;5176;42.622;25.386;2023-11-18T11:25:33;96082.59;;;6.92;63.62
9439;BME280;5176;42.622;25.386;2023-11-18T11:28:08;96090.94;;;6.97;63.84
9439;BME280;5176;42.622;25.386;2023-11-18T11:30:43;96109.78;;;7.00;61.54
9439;BME280;5176;42.622;25.386;2023-11-18T11:33:21;96096.88;;;6.99;62.27
9439;BME280;5176;42.622;25.386;2023-11-18T11:35:56;96113.66;;;7.07;62.46
9439;BME280;5176;42.622;25.386;2023-11-18T11:38:28;96110.03;;;7.10;61.61
9439;BME280;5176;42.622;25.386;2023-11-18T11:40:58;96094.56;;;7.07;62.51
9439;BME280;5176;42.622;25.386;2023-11-18T11:43:34;96110.09;;;7.08;62.36
9439;BME280;5176;42.622;25.386;2023-11-18T11:46:02;96102.81;;;7.14;61.19
9439;BME280;5176;42.622;25.386;2023-11-18T11:48:37;96101.25;;;7.11;61.00
9439;BME280;5176;42.622;25.386;2023-11-18T11:51:16;96097.81;;;7.10;62.85
9439;BME280;5176;42.622;25.386;2023-11-18T11:53:49;96112.41;;;7.13;62.92
9439;BME280;5176;42.622;25.386;2023-11-18T11:56:19;96104.28;;;7.18;62.37
9439;BME280;5176;42.622;25.386;2023-11-18T11:58:50;96112.41;;;7.13;62.16
9439;BME280;5176;42.622;25.386;2023-11-18T12:01:36;96113.47;;;7.10;63.07
9439;BME280;5176;42.622;25.386;2023-11-18T12:04:04;96119.81;;;7.06;63.29
9439;BME280;5176;42.622;25.386;2023-11-18T12:06:41;96112.81;;;7.07;62.71
9439;BME280;5176;42.622;25.386;2023-11-18T12:09:10;96108.25;;;6.98;61.86
9439;BME280;5176;42.622;25.386;2023-11-18T12:11:45;96098.34;;;7.03;62.28
9439;BME280;5176;42.622;25.386;2023-11-18T12:14:15;96103.97;;;7.09;62.23
9439;BME280;5176;42.622;25.386;2023-11-18T12:17:04;96107.81;;;7.04;63.46
9439;BME280;5176;42.622;25.386;2023-11-18T12:19:38;96115.13;;;6.99;63.99
9439;BME280;5176;42.622;25.386;2023-11-18T12:22:16;96109.47;;;6.92;64.10
9439;BME280;5176;42.622;25.386;2023-11-18T12:28:09;96092.19;;;7.04;62.58
9439;BME280;5176;42.622;25.386;2023-11-18T12:30:38;96122.72;;;7.02;62.92
9439;BME280;5176;42.622;25.386;2023-11-18T12:33:09;96114.69;;;7.05;62.72
9439;BME280;5176;42.622;25.386;2023-11-18T12:39:08;96122.63;;;7.03;63.53
9439;BME280;5176;42.622;25.386;2023-11-18T12:41:43;96129.19;;;6.96;63.26
9439;BME280;5176;42.622;25.386;2023-11-18T12:44:20;96120.53;;;6.96;63.44
9439;BME280;5176;42.622;25.386;2023-11-18T12:46:59;96131.81;;;7.09;63.35
9439;BME280;5176;42.622;25.386;2023-11-18T12:49:38;96125.84;;;6.94;63.64
9439;BME280;5176;42.622;25.386;2023-11-18T12:52:08;96117.28;;;6.92;64.01
9439;BME280;5176;42.622;25.386;2023-11-18T12:54:38;96117.28;;;6.92;63.11
9439;BME280;5176;42.622;25.386;2023-11-18T12:57:09;96118.97;;;6.93;62.60
9439;BME280;5176;42.622;25.386;2023-11-18T12:59:40;96135.84;;;7.00;62.46
9439;BME280;5176;42.622;25.386;2023-11-18T13:02:08;96123.34;;;7.05;62.64
9439;BME280;5176;42.622;25.386;2023-11-18T13:04:39;96134.41;;;7.09;62.45
9439;BME280;5176;42.622;25.386;2023-11-18T13:07:08;96122.41;;;7.06;63.43
9439;BME280;5176;42.622;25.386;2023-11-18T13:09:38;96120.03;;;7.03;63.23
9439;BME280;5176;42.622;25.386;2023-11-18T13:12:08;96126.47;;;6.98;64.43
9439;BME280;5176;42.622;25.386;2023-11-18T13:14:38;96118.44;;;6.88;62.86
9439;BME280;5176;42.622;25.386;2023-11-18T13:17:09;96140.53;;;6.95;64.97
9439;BME280;5176;42.622;25.386;2023-11-18T13:19:39;96133.34;;;6.86;63.36
9439;BME280;5176;42.622;25.386;2023-11-18T13:22:08;96135.00;;;6.87;63.32
9439;BME280;5176;42.622;25.386;2023-11-18T13:24:39;96137.84;;;6.97;64.97
9439;BME280;5176;42.622;25.386;2023-11-18T13:27:10;96153.38;;;6.98;63.80
9439;BME280;5176;42.622;25.386;2023-11-18T13:29:38;96143.34;;;6.92;64.44
9439;BME280;5176;42.622;25.386;2023-11-18T13:32:10;96146.66;;;6.81;64.71
9439;BME280;5176;42.622;25.386;2023-11-18T13:34:39;96143.75;;;6.86;65.14
9439;BME280;5176;42.622;25.386;2023-11-18T13:37:08;96101.41;;;6.57;66.17
9439;BME280;5176;42.622;25.386;2023-11-18T13:39:38;96161.88;;;6.88;64.02
9439;BME280;5176;42.622;25.386;2023-11-18T13:42:20;96166.47;;;6.84;64.74